Terminal Aerodrome Forecast
Issued by NWS

Home | Current Version | Previous Version | Graphics & Text | Print | Product List | Glossary On
Versions: 1 2 3 4 5 6 7 8 9 10 11 12
602
FTUS43 KICT 050536
TAFRSL
TAF
KRSL 050536Z 0506/0606 VRB05KT P6SM OVC250
     FM051000 22005KT P6SM SCT100 OVC150
     FM051600 25007KT P6SM OVC100
     FM052200 33015G22KT P6SM BKN035 OVC100=

USA.gov is the U.S. government's official web portal to all federal, state and local government web resources and services.